Terminal Aerodrome Forecast
Issued by NWS Shreveport, LA

Home | Current Version | Previous Version | Text Only | Print | Product List | Glossary On
Versions: 1 2 3 4 5 6 7 8 9 10 11 12 13 14 15
000
FTUS44 KSHV 010500
TAFMLU
TAF
KMLU 010537Z 0106/0206 00000KT P6SM SCT070
      TEMPO 0110/0114 3SM BR BKN015
     FM011400 15004KT P6SM BKN015
     FM011600 17006KT P6SM BKN040
     FM012000 18007KT P6SM VCTS BKN040CB
     FM020000 15004KT P6SM FEW040=

USA.gov is the U.S. government's official web portal to all federal, state and local government web resources and services.